createdAt,value
2023-01-19T00:00:55.354Z,97410.06
2023-01-19T00:03:28.352Z,97405.72
2023-01-19T00:05:55.333Z,97421.31
2023-01-19T00:08:22.584Z,97433.59
2023-01-19T00:10:53.687Z,97437.94
2023-01-19T00:13:21.209Z,97438.81
2023-01-19T00:15:48.113Z,97450.00
2023-01-19T00:18:15.466Z,97447.38
2023-01-19T00:20:45.048Z,97454.25
2023-01-19T00:23:12.891Z,97460.25
2023-01-19T00:25:42.706Z,97457.66
2023-01-19T00:28:14.532Z,97463.66
2023-01-19T00:30:42.351Z,97464.41
2023-01-19T00:33:10.816Z,97475.69
2023-01-19T00:35:37.739Z,97474.84
2023-01-19T00:38:04.976Z,97465.50
2023-01-19T00:40:32.132Z,97466.34
2023-01-19T00:43:00.339Z,97461.06
2023-01-19T00:45:28.089Z,97462.69
2023-01-19T00:47:57.287Z,97460.03
2023-01-19T00:50:26.613Z,97468.63
2023-01-19T00:52:56.045Z,97460.72
2023-01-19T00:55:23.886Z,97471.91
2023-01-19T00:57:50.836Z,97480.38
2023-01-19T01:00:20.153Z,97483.66
2023-01-19T01:02:48.966Z,97484.44
2023-01-19T01:05:16.532Z,97477.53
2023-01-19T01:07:45.363Z,97464.41
2023-01-19T01:10:18.645Z,97467.78
2023-01-19T01:13:05.160Z,97471.16
2023-01-19T01:15:33.279Z,97477.16
2023-01-19T01:18:00.114Z,97478.78
2023-01-19T01:20:30.303Z,97471.84
2023-01-19T01:22:58.604Z,97475.25
2023-01-19T01:25:28.501Z,97481.25
2023-01-19T01:27:55.607Z,97481.13
2023-01-19T01:30:23.659Z,97484.53
2023-01-19T01:32:50.656Z,97483.69
2023-01-19T01:35:18.004Z,97470.59
2023-01-19T01:37:45.235Z,97465.47
2023-01-19T01:40:14.733Z,97473.25
2023-01-19T01:42:42.685Z,97480.25
2023-01-19T01:45:35.500Z,97482.00
2023-01-19T01:48:10.476Z,97491.44
2023-01-19T01:51:25.376Z,97501.75
2023-01-19T01:54:16.358Z,97506.91
2023-01-19T01:56:49.342Z,97497.59
2023-01-19T01:59:29.834Z,97489.88
2023-01-19T02:02:18.829Z,97483.84
2023-01-19T02:05:04.234Z,97487.25
2023-01-19T02:08:04.904Z,97493.13
2023-01-19T02:10:51.565Z,97493.94
2023-01-19T02:13:22.014Z,97493.94
2023-01-19T02:15:54.766Z,97495.66
2023-01-19T02:18:25.103Z,97501.56
2023-01-19T02:21:04.798Z,97491.94
2023-01-19T02:24:00.374Z,97484.03
2023-01-19T02:26:44.508Z,97483.88
2023-01-19T02:29:14.907Z,97470.75
2023-01-19T02:31:42.367Z,97463.72
2023-01-19T02:34:12.191Z,97454.00
2023-01-19T02:36:44.586Z,97447.84
2023-01-19T02:39:14.535Z,97442.59
2023-01-19T02:41:48.895Z,97448.75
2023-01-19T02:44:17.414Z,97428.84
2023-01-19T02:46:44.599Z,97432.38
2023-01-19T02:49:11.836Z,97428.94
2023-01-19T02:51:38.928Z,97440.19
2023-01-19T02:54:33.451Z,97447.13
2023-01-19T02:57:20.499Z,97437.56
2023-01-19T03:00:17.579Z,97451.31
2023-01-19T03:03:09.277Z,97457.25
2023-01-19T03:06:14.589Z,97463.06
2023-01-19T03:08:53.197Z,97476.75
2023-01-19T03:11:20.811Z,97484.38
2023-01-19T03:13:53.928Z,97475.59
2023-01-19T03:16:43.123Z,97483.22
2023-01-19T03:19:17.208Z,97478.75
2023-01-19T03:21:52.147Z,97478.56
2023-01-19T03:24:21.462Z,97479.38
2023-01-19T03:27:03.861Z,97479.53
2023-01-19T03:29:35.138Z,97468.19
2023-01-19T03:32:12.362Z,97441.47
2023-01-19T03:34:40.476Z,97431.97
2023-01-19T03:37:10.191Z,97426.91
2023-01-19T03:39:37.662Z,97423.66
2023-01-19T03:42:14.936Z,97428.28
2023-01-19T03:44:44.168Z,97417.22
2023-01-19T03:47:14.174Z,97402.66
2023-01-19T03:49:44.165Z,97399.44
2023-01-19T03:52:12.971Z,97392.72
2023-01-19T03:54:41.149Z,97378.16
2023-01-19T03:57:08.471Z,97378.31
2023-01-19T03:59:35.361Z,97394.88
2023-01-19T04:02:02.543Z,97399.28
2023-01-19T04:04:29.477Z,97412.41
2023-01-19T04:06:57.827Z,97428.03
2023-01-19T04:09:25.818Z,97441.13
2023-01-19T04:11:53.156Z,97434.47
2023-01-19T04:14:20.091Z,97436.28
2023-01-19T04:16:47.224Z,97435.56
2023-01-19T04:19:14.151Z,97437.25
2023-01-19T04:21:41.399Z,97428.75
2023-01-19T04:24:10.535Z,97417.63
2023-01-19T04:26:37.743Z,97421.16
2023-01-19T04:29:05.543Z,97422.09
2023-01-19T04:31:33.087Z,97436.84
2023-01-19T04:34:00.034Z,97448.13
2023-01-19T04:36:28.259Z,97456.00
2023-01-19T04:38:55.411Z,97456.06
2023-01-19T04:41:22.619Z,97457.78
2023-01-19T04:43:49.691Z,97461.22
2023-01-19T04:46:16.989Z,97467.25
2023-01-19T04:48:43.889Z,97469.00
2023-01-19T04:51:11.011Z,97469.84
2023-01-19T04:53:37.951Z,97463.72
2023-01-19T04:56:05.541Z,97470.69
2023-01-19T04:58:32.489Z,97471.59
2023-01-19T05:01:00.557Z,97479.38
2023-01-19T05:03:27.514Z,97492.34
2023-01-19T05:05:54.830Z,97489.00
2023-01-19T05:08:21.692Z,97501.97
2023-01-19T05:10:48.848Z,97507.16
2023-01-19T05:13:15.805Z,97505.41
2023-01-19T05:15:43.004Z,97496.75
2023-01-19T05:18:10.021Z,97488.13
2023-01-19T05:20:37.188Z,97486.38
2023-01-19T05:23:04.287Z,97478.56
2023-01-19T05:25:31.439Z,97461.28
2023-01-19T05:27:58.335Z,97457.84
2023-01-19T05:30:25.795Z,97451.78
2023-01-19T05:32:52.675Z,97429.34
2023-01-19T05:35:27.779Z,97420.81
2023-01-19T05:37:58.459Z,97397.44
2023-01-19T05:40:25.809Z,97391.41
2023-01-19T05:42:53.380Z,97404.44
2023-01-19T05:45:21.250Z,97433.81
2023-01-19T05:47:48.235Z,97425.16
2023-01-19T05:50:15.727Z,97424.22
2023-01-19T05:52:42.573Z,97431.09
2023-01-19T05:55:09.975Z,97431.88
2023-01-19T05:57:37.043Z,97437.03
2023-01-19T06:00:05.631Z,97450.91
2023-01-19T06:02:32.540Z,97456.09
2023-01-19T06:04:59.717Z,97455.22
2023-01-19T06:07:29.023Z,97451.78
2023-01-19T06:09:56.373Z,97463.81
2023-01-19T06:12:23.370Z,97469.84
2023-01-19T06:14:50.973Z,97468.03
2023-01-19T06:17:18.404Z,97467.09
2023-01-19T06:19:45.589Z,97471.41
2023-01-19T06:22:12.666Z,97455.72
2023-01-19T06:24:39.810Z,97458.28
2023-01-19T06:27:06.775Z,97459.97
2023-01-19T06:29:34.179Z,97459.06
2023-01-19T06:32:01.045Z,97472.94
2023-01-19T06:34:29.164Z,97478.13
2023-01-19T06:36:56.706Z,97479.94
2023-01-19T06:39:24.281Z,97487.69
2023-01-19T06:41:51.430Z,97456.56
2023-01-19T06:44:18.659Z,97449.63
2023-01-19T06:46:45.624Z,97446.22
2023-01-19T06:49:12.850Z,97437.59
2023-01-19T06:51:39.898Z,97421.16
2023-01-19T06:54:07.100Z,97428.13
2023-01-19T06:56:34.004Z,97428.13
2023-01-19T06:59:01.254Z,97447.13
2023-01-19T07:01:28.257Z,97466.22
2023-01-19T07:03:55.585Z,97465.25
2023-01-19T07:06:22.508Z,97462.56
2023-01-19T07:08:49.714Z,97445.19
2023-01-19T07:11:25.565Z,97449.44
2023-01-19T07:13:57.376Z,97457.22
2023-01-19T07:16:24.398Z,97462.41
2023-01-19T07:18:51.782Z,97469.25
2023-01-19T07:21:19.307Z,97470.91
2023-01-19T07:23:51.492Z,97473.41
2023-01-19T07:26:21.333Z,97461.13
2023-01-19T07:28:48.880Z,97464.53
2023-01-19T07:31:16.746Z,97469.72
2023-01-19T07:33:44.509Z,97474.88
2023-01-19T07:36:12.266Z,97483.47
2023-01-19T07:38:39.722Z,97484.22
2023-01-19T08:08:15.846Z,97458.00
2023-01-19T08:10:42.951Z,97466.38
2023-01-19T08:13:09.808Z,97456.38
2023-01-19T08:15:37.710Z,97447.22
2023-01-19T08:18:09.836Z,97441.41
2023-01-19T08:20:37.966Z,97442.41
2023-01-19T08:23:05.577Z,97428.69
2023-01-19T08:25:38.858Z,97423.50
2023-01-19T08:28:07.379Z,97428.66
2023-01-19T08:30:35.803Z,97420.75
2023-01-19T08:33:08.125Z,97427.47
2023-01-19T08:35:43.705Z,97420.31
2023-01-19T08:38:11.040Z,97421.91
2023-01-19T08:40:40.272Z,97424.47
2023-01-19T08:43:10.176Z,97421.63
2023-01-19T08:45:38.464Z,97423.22
2023-01-19T08:48:06.445Z,97422.22
2023-01-19T08:50:34.783Z,97422.16
2023-01-19T08:53:04.583Z,97419.44
2023-01-19T08:55:31.783Z,97428.78
2023-01-19T08:58:00.111Z,97431.97
2023-01-19T09:00:27.939Z,97433.34
2023-01-19T09:02:55.333Z,97436.56
2023-01-19T09:05:22.569Z,97444.16
2023-01-19T09:22:33.588Z,97410.06
2023-01-19T09:25:00.767Z,97406.13
2023-01-19T09:27:27.632Z,97403.78
2023-01-19T09:29:54.860Z,97404.00
2023-01-19T09:32:23.022Z,97395.63
2023-01-19T09:34:50.256Z,97402.84
2023-01-19T09:37:17.084Z,97409.97
2023-01-19T09:39:44.658Z,97411.03
2023-01-19T09:42:49.933Z,97419.09
2023-01-19T09:45:34.543Z,97398.28
2023-01-19T09:48:04.753Z,97395.88
2023-01-19T09:50:39.888Z,97390.03
2023-01-19T09:53:50.506Z,97379.63
2023-01-19T09:56:20.029Z,97379.56
2023-01-19T09:58:51.093Z,97371.88
2023-01-19T10:01:41.667Z,97360.03
2023-01-19T10:04:46.579Z,97366.38
2023-01-19T10:07:19.666Z,97371.63
2023-01-19T10:10:09.774Z,97374.44
2023-01-19T10:12:52.704Z,97371.22
2023-01-19T10:15:50.064Z,97367.09
2023-01-19T10:18:23.079Z,97365.38
2023-01-19T10:20:56.809Z,97368.75
2023-01-19T10:23:53.510Z,97364.34
2023-01-19T10:26:39.041Z,97358.03
2023-01-19T10:42:22.367Z,97330.19
2023-01-19T10:44:50.097Z,97333.91
2023-01-19T10:47:23.787Z,97343.78
2023-01-19T10:49:52.270Z,97347.56
2023-01-19T10:52:35.855Z,97345.41
2023-01-19T10:55:06.710Z,97345.06
2023-01-19T10:57:40.966Z,97339.56
2023-01-19T11:00:37.907Z,97347.75
2023-01-19T11:03:22.659Z,97350.59
2023-01-19T11:05:49.973Z,97340.44
2023-01-19T11:08:28.773Z,97333.84
2023-01-19T11:10:59.297Z,97339.69
2023-01-19T11:13:26.641Z,97322.47
2023-01-19T11:27:06.122Z,97328.69
2023-01-19T11:29:33.440Z,97333.59
2023-01-19T11:32:18.006Z,97342.75
2023-01-19T11:34:45.165Z,97343.94
2023-01-19T11:37:20.860Z,97337.34
2023-01-19T11:39:49.812Z,97331.53
2023-01-19T11:42:17.914Z,97326.56
2023-01-19T11:44:51.093Z,97336.44
2023-01-19T11:47:44.415Z,97329.69
2023-01-19T11:50:20.661Z,97317.78
2023-01-19T11:52:56.132Z,97305.81
2023-01-19T12:11:48.464Z,97279.03
2023-01-19T12:14:22.701Z,97287.31
2023-01-19T12:16:53.401Z,97286.78
2023-01-19T12:19:54.578Z,97277.63
2023-01-19T12:22:23.844Z,97285.56
2023-01-19T12:24:57.870Z,97285.88
2023-01-19T12:27:41.394Z,97295.63
2023-01-19T12:30:22.212Z,97290.56
2023-01-19T12:32:51.400Z,97294.13
2023-01-19T12:35:57.050Z,97289.09
2023-01-19T12:38:40.924Z,97297.97
2023-01-19T12:41:26.414Z,97294.63
2023-01-19T12:44:12.037Z,97292.91
2023-01-19T12:46:40.752Z,97297.22
2023-01-19T12:49:14.691Z,97285.19
2023-01-19T12:51:42.031Z,97290.38
2023-01-19T12:54:21.331Z,97292.16
2023-01-19T12:56:49.595Z,97294.78
2023-01-19T12:59:26.968Z,97305.38
2023-01-19T13:14:36.249Z,97305.47
2023-01-19T13:30:57.080Z,97352.91
2023-01-19T13:33:27.550Z,97362.31
2023-01-19T13:35:58.715Z,97358.44
2023-01-19T13:38:27.741Z,97368.34
2023-01-19T13:40:56.658Z,97358.25
2023-01-19T13:43:36.639Z,97351.69
2023-01-19T13:46:04.314Z,97358.78
2023-01-19T13:48:32.739Z,97354.53
2023-01-19T13:51:05.693Z,97357.25
2023-01-19T16:52:26.918Z,97454.78
2023-01-19T16:54:54.773Z,97452.25
2023-01-19T16:57:21.851Z,97463.25
2023-01-19T16:59:50.723Z,97470.59
2023-01-19T17:02:17.664Z,97465.81
2023-01-19T17:04:44.839Z,97455.53
2023-01-19T17:07:11.668Z,97456.59
2023-01-19T17:09:38.991Z,97460.25
2023-01-19T17:12:08.928Z,97461.28
2023-01-19T17:14:37.482Z,97471.66
2023-01-19T17:17:05.120Z,97479.56
2023-01-19T17:19:32.309Z,97471.81
2023-01-19T17:21:59.198Z,97491.84
2023-01-19T17:24:26.345Z,97492.69
2023-01-19T17:26:53.193Z,97499.66
2023-01-19T17:29:20.355Z,97492.78
2023-01-19T17:31:50.729Z,97485.06
2023-01-19T17:34:17.882Z,97486.00
2023-01-19T17:36:45.170Z,97478.19
2023-01-19T19:47:29.083Z,97675.03
2023-01-19T19:49:56.288Z,97660.13
2023-01-19T19:52:23.318Z,97664.09
2023-01-19T19:54:50.708Z,97666.94
2023-01-19T19:57:17.601Z,97673.19
2023-01-19T19:59:44.752Z,97676.03
2023-01-19T20:02:12.618Z,97676.31
2023-01-19T20:04:40.311Z,97678.34
2023-01-19T20:07:07.283Z,97680.94
2023-01-19T20:09:36.399Z,97676.75
2023-01-19T20:12:03.465Z,97678.50
2023-01-19T20:14:30.771Z,97694.13
2023-01-19T20:16:57.707Z,97694.31
2023-01-19T20:19:24.928Z,97698.59
2023-01-19T20:21:52.261Z,97694.31
2023-01-19T20:24:20.635Z,97700.34
2023-01-19T20:26:52.851Z,97682.13
2023-01-19T20:29:21.003Z,97679.53
2023-01-19T20:31:51.393Z,97680.38
2023-01-19T20:34:21.439Z,97683.78
2023-01-19T20:36:50.422Z,97695.88
2023-01-19T20:39:18.832Z,97698.56
2023-01-19T20:41:45.985Z,97715.81
2023-01-19T20:44:15.739Z,97729.72
2023-01-19T20:46:43.793Z,97736.66
2023-01-19T20:49:11.288Z,97732.41
2023-01-19T20:51:43.209Z,97732.31
2023-01-19T20:54:11.820Z,97737.47
2023-01-19T20:56:38.860Z,97745.31
2023-01-19T20:59:06.026Z,97752.22
2023-01-19T21:01:33.025Z,97764.38
2023-01-19T21:04:00.270Z,97775.53
2023-01-19T21:06:27.115Z,97770.34
2023-01-19T21:08:54.433Z,97761.66
2023-01-19T21:11:23.969Z,97753.88
2023-01-19T21:13:55.695Z,97753.81
2023-01-19T21:16:24.111Z,97784.97
2023-01-19T21:18:51.572Z,97790.22
2023-01-19T21:21:29.721Z,97792.94
2023-01-19T21:23:59.664Z,97809.38
2023-01-19T21:26:26.805Z,97812.03
2023-01-19T21:28:54.009Z,97811.16
2023-01-19T21:31:27.063Z,97806.84
2023-01-19T21:33:55.036Z,97805.94
2023-01-19T21:36:22.669Z,97801.66
2023-01-19T21:38:51.599Z,97807.69
2023-01-19T21:41:18.883Z,97812.88
2023-01-19T21:43:46.381Z,97812.81
2023-01-19T21:46:13.817Z,97809.38
2023-01-19T21:48:42.447Z,97819.84
2023-01-19T21:51:09.737Z,97811.16
2023-01-19T21:53:37.171Z,97809.44
2023-01-19T21:56:07.447Z,97820.66
2023-01-19T21:58:34.791Z,97827.63
2023-01-19T22:01:04.829Z,97825.06
2023-01-19T22:03:32.311Z,97829.34
2023-01-19T22:06:07.747Z,97847.56
2023-01-19T22:08:35.451Z,97844.09
2023-01-19T22:11:09.400Z,97873.47
2023-01-19T22:13:40.502Z,97881.31
2023-01-19T22:16:10.967Z,97881.31
2023-01-19T22:18:40.049Z,97888.16
2023-01-19T22:21:19.181Z,97895.13
2023-01-19T22:23:51.237Z,97893.38
2023-01-19T22:26:19.024Z,97889.94
2023-01-19T22:28:47.602Z,97890.75
2023-01-19T22:31:16.841Z,97892.56
2023-01-19T22:33:45.154Z,97890.91
2023-01-19T22:36:26.064Z,97893.47
2023-01-19T22:39:01.354Z,97881.31
2023-01-19T22:41:30.954Z,97896.00
2023-01-19T22:44:04.532Z,97890.81
2023-01-19T23:04:39.493Z,97905.03
2023-01-19T23:07:09.324Z,97917.47
2023-01-19T23:09:38.116Z,97931.53
2023-01-19T23:12:05.247Z,97941.31
2023-01-19T23:14:32.148Z,97947.44
2023-01-19T23:16:59.359Z,97948.47
2023-01-19T23:19:26.251Z,97960.63
2023-01-19T23:21:53.527Z,97976.22
2023-01-19T23:24:20.471Z,97973.66
2023-01-19T23:26:49.922Z,97971.94
2023-01-19T23:29:17.995Z,97974.69
2023-01-19T23:31:48.535Z,97966.03
2023-01-19T23:34:15.803Z,97979.00
2023-01-19T23:36:43.895Z,97973.84
2023-01-19T23:39:19.619Z,97973.00
2023-01-19T23:41:47.758Z,97979.06
2023-01-19T23:44:15.202Z,97980.81
2023-01-19T23:46:43.932Z,97978.22
2023-01-19T23:49:11.571Z,97984.25
2023-01-19T23:51:39.939Z,98001.56
2023-01-19T23:54:07.324Z,98005.84
2023-01-19T23:56:36.987Z,98025.72
2023-01-19T23:59:07.336Z,98044.69
